createdAt,value
2022-11-06T00:01:34.012Z,3.10
2022-11-06T00:04:01.101Z,3.10
2022-11-06T00:06:46.822Z,3.10
2022-11-06T00:09:15.072Z,3.10
2022-11-06T00:11:42.373Z,3.10
2022-11-06T00:14:09.813Z,3.10
2022-11-06T00:16:40.917Z,3.10
2022-11-06T00:19:08.186Z,3.00
2022-11-06T00:21:35.818Z,3.00
2022-11-06T00:24:04.986Z,3.00
2022-11-06T00:26:33.130Z,3.00
2022-11-06T00:29:00.208Z,3.00
2022-11-06T00:31:30.683Z,3.00
2022-11-06T00:33:59.767Z,3.00
2022-11-06T00:36:30.446Z,3.00
2022-11-06T00:38:58.615Z,3.00
2022-11-06T00:41:26.005Z,3.00
2022-11-06T00:43:58.423Z,3.00
2022-11-06T00:46:25.889Z,3.00
2022-11-06T00:48:53.716Z,4.10
2022-11-06T00:51:46.715Z,3.00
2022-11-06T00:54:13.937Z,3.00
2022-11-06T00:56:40.934Z,3.00
2022-11-06T00:59:10.960Z,3.00
2022-11-06T01:01:40.128Z,3.00
2022-11-06T01:04:18.859Z,3.00
2022-11-06T01:06:47.868Z,3.00
2022-11-06T01:09:18.727Z,3.00
2022-11-06T01:14:35.026Z,3.00
2022-11-06T01:17:01.797Z,3.00
2022-11-06T01:19:28.517Z,3.00
2022-11-06T01:21:55.421Z,3.00
2022-11-06T01:24:25.105Z,3.00
2022-11-06T01:27:24.346Z,3.00
2022-11-06T01:29:39.329Z,3.10
2022-11-06T01:32:06.879Z,3.10
2022-11-06T01:34:33.556Z,3.10
2022-11-06T01:37:00.243Z,3.10
2022-11-06T01:39:27.136Z,3.00
2022-11-06T01:41:54.525Z,3.00
2022-11-06T01:44:33.342Z,3.00
2022-11-06T01:47:01.741Z,3.00
2022-11-06T01:49:32.732Z,3.00
2022-11-06T01:52:03.040Z,3.00
2022-11-06T01:54:31.088Z,3.00
2022-11-06T01:57:00.126Z,3.00
2022-11-06T01:59:28.897Z,3.00
2022-11-06T02:01:55.851Z,3.00
2022-11-06T02:04:29.321Z,2.90
2022-11-06T02:06:56.909Z,3.00
2022-11-06T02:09:25.469Z,2.90
2022-11-06T02:12:05.275Z,2.90
2022-11-06T02:14:43.296Z,2.90
2022-11-06T02:17:32.957Z,2.90
2022-11-06T02:20:18.477Z,2.90
2022-11-06T02:22:45.177Z,2.90
2022-11-06T02:25:32.674Z,2.90
2022-11-06T02:28:11.475Z,2.90
2022-11-06T02:30:44.237Z,4.40
2022-11-06T02:33:16.576Z,2.80
2022-11-06T02:36:05.947Z,2.80
2022-11-06T02:38:37.310Z,2.80
2022-11-06T02:41:08.838Z,2.80
2022-11-06T02:43:43.646Z,2.80
2022-11-06T02:46:15.295Z,2.80
2022-11-06T02:48:47.527Z,2.80
2022-11-06T02:51:18.853Z,2.70
2022-11-06T02:53:47.825Z,2.80
2022-11-06T02:56:27.149Z,2.70
2022-11-06T02:59:09.730Z,2.70
2022-11-06T03:02:03.012Z,2.70
2022-11-06T03:04:53.784Z,2.70
2022-11-06T03:07:32.847Z,2.70
2022-11-06T03:09:59.605Z,2.70
2022-11-06T03:12:29.338Z,2.70
2022-11-06T03:15:19.537Z,2.70
2022-11-06T03:18:18.185Z,2.60
2022-11-06T03:21:06.840Z,2.60
2022-11-06T03:23:57.001Z,2.60
2022-11-06T03:26:35.914Z,2.60
2022-11-06T03:29:25.884Z,2.60
2022-11-06T03:32:08.239Z,2.60
2022-11-06T03:35:07.253Z,2.60
2022-11-06T03:37:40.895Z,2.60
2022-11-06T03:40:12.234Z,2.60
2022-11-06T03:42:41.217Z,2.60
2022-11-06T03:45:13.517Z,2.60
2022-11-06T03:47:44.750Z,2.60
2022-11-06T03:50:34.031Z,2.60
2022-11-06T03:53:12.174Z,2.60
2022-11-06T03:55:48.981Z,2.60
2022-11-06T03:58:21.659Z,2.60
2022-11-06T04:00:51.246Z,3.50
2022-11-06T04:03:32.732Z,2.60
2022-11-06T04:06:08.379Z,2.60
2022-11-06T04:08:54.375Z,2.60
2022-11-06T04:11:43.571Z,2.60
2022-11-06T04:14:11.412Z,3.20
2022-11-06T04:16:41.229Z,2.60
2022-11-06T04:19:21.940Z,3.20
2022-11-06T04:22:17.447Z,2.60
2022-11-06T04:25:19.121Z,3.20
2022-11-06T04:27:53.267Z,2.60
2022-11-06T04:30:20.099Z,2.60
2022-11-06T04:33:11.321Z,2.60
2022-11-06T04:35:54.531Z,2.60
2022-11-06T04:38:29.167Z,2.60
2022-11-06T04:41:25.005Z,2.60
2022-11-06T04:44:00.932Z,2.60
2022-11-06T04:46:36.907Z,2.70
2022-11-06T04:49:06.167Z,2.60
2022-11-06T04:51:38.884Z,2.60
2022-11-06T04:54:09.052Z,2.70
2022-11-06T04:56:40.120Z,2.70
2022-11-06T04:59:15.975Z,5.00
2022-11-06T05:01:43.348Z,2.70
2022-11-06T05:04:11.421Z,2.70
2022-11-06T05:06:38.186Z,2.70
2022-11-06T05:09:04.941Z,2.70
2022-11-06T05:11:31.934Z,2.70
2022-11-06T05:13:58.616Z,2.70
2022-11-06T05:16:25.347Z,2.80
2022-11-06T05:18:52.109Z,2.80
2022-11-06T05:21:37.527Z,2.80
2022-11-06T05:24:04.715Z,2.80
2022-11-06T05:26:31.380Z,2.90
2022-11-06T05:28:58.123Z,2.90
2022-11-06T05:31:26.081Z,2.90
2022-11-06T05:33:52.792Z,2.90
2022-11-06T05:36:19.592Z,3.00
2022-11-06T05:38:46.264Z,3.00
2022-11-06T05:41:12.983Z,3.00
2022-11-06T05:43:39.904Z,3.00
2022-11-06T05:46:14.999Z,3.00
2022-11-06T05:48:50.911Z,3.10
2022-11-06T05:51:17.894Z,3.00
2022-11-06T05:53:44.574Z,3.10
2022-11-06T05:56:11.397Z,3.10
2022-11-06T05:58:38.071Z,3.10
2022-11-06T06:01:05.349Z,3.10
2022-11-06T06:03:32.480Z,3.10
2022-11-06T06:05:59.225Z,3.10
2022-11-06T06:08:26.001Z,3.10
2022-11-06T06:10:52.714Z,3.10
2022-11-06T06:13:19.503Z,3.10
2022-11-06T06:15:46.473Z,3.20
2022-11-06T06:18:13.710Z,3.20
2022-11-06T06:20:40.742Z,3.20
2022-11-06T06:23:09.586Z,3.20
2022-11-06T06:25:36.512Z,3.20
2022-11-06T06:28:03.397Z,3.20
2022-11-06T06:30:30.139Z,3.20
2022-11-06T06:32:56.842Z,3.30
2022-11-06T06:35:23.575Z,3.30
2022-11-06T06:37:56.171Z,3.30
2022-11-06T06:40:23.352Z,3.30
2022-11-06T06:42:50.120Z,3.30
2022-11-06T06:45:17.133Z,3.30
2022-11-06T06:47:43.865Z,3.30
2022-11-06T06:50:11.054Z,3.30
2022-11-06T06:52:37.840Z,3.30
2022-11-06T06:55:05.393Z,3.30
2022-11-06T06:57:32.538Z,3.30
2022-11-06T06:59:59.242Z,3.30
2022-11-06T07:02:26.020Z,3.30
2022-11-06T07:04:52.748Z,3.30
2022-11-06T07:07:19.453Z,3.40
2022-11-06T07:09:46.370Z,3.30
2022-11-06T07:12:13.092Z,3.40
2022-11-06T07:14:39.781Z,3.40
2022-11-06T07:17:06.478Z,3.40
2022-11-06T07:19:33.227Z,4.20
2022-11-06T07:21:59.914Z,3.40
2022-11-06T07:24:30.032Z,3.50
2022-11-06T07:26:56.716Z,3.50
2022-11-06T07:29:23.385Z,3.50
2022-11-06T07:31:50.625Z,3.50
2022-11-06T07:34:17.405Z,3.50
2022-11-06T07:36:44.067Z,3.50
2022-11-06T07:39:11.708Z,3.60
2022-11-06T07:41:38.606Z,3.60
2022-11-06T07:44:05.626Z,5.90
2022-11-06T07:46:32.583Z,3.70
2022-11-06T07:48:59.315Z,3.80
2022-11-06T07:51:26.612Z,3.80
2022-11-06T07:53:53.525Z,3.90
2022-11-06T07:56:20.222Z,4.00
2022-11-06T07:58:46.934Z,4.10
2022-11-06T08:01:19.075Z,4.10
2022-11-06T08:03:46.187Z,4.20
2022-11-06T08:06:13.164Z,4.30
2022-11-06T08:08:39.925Z,4.40
2022-11-06T08:11:12.175Z,4.40
2022-11-06T08:13:42.217Z,4.50
2022-11-06T08:16:12.014Z,4.60
2022-11-06T08:18:39.407Z,4.70
2022-11-06T08:21:07.660Z,4.70
2022-11-06T08:23:37.842Z,4.80
2022-11-06T08:26:06.537Z,5.70
2022-11-06T08:28:33.413Z,4.90
2022-11-06T08:31:04.623Z,4.90
2022-11-06T08:33:31.628Z,5.00
2022-11-06T08:36:02.720Z,5.10
2022-11-06T08:38:29.482Z,4.70
2022-11-06T08:40:56.201Z,5.20
2022-11-06T08:43:27.416Z,5.30
2022-11-06T08:45:56.824Z,5.40
2022-11-06T08:48:23.541Z,5.40
2022-11-06T08:50:50.562Z,5.50
2022-11-06T08:53:20.079Z,5.50
2022-11-06T08:55:46.960Z,5.70
2022-11-06T08:58:14.205Z,5.80
2022-11-06T09:00:41.173Z,5.80
2022-11-06T09:03:14.090Z,5.90
2022-11-06T09:05:42.524Z,6.00
2022-11-06T09:08:10.694Z,6.10
2022-11-06T09:10:41.936Z,6.70
2022-11-06T09:13:09.121Z,6.30
2022-11-06T09:15:36.933Z,7.80
2022-11-06T09:18:03.794Z,7.90
2022-11-06T09:20:30.553Z,6.40
2022-11-06T09:23:02.147Z,7.60
2022-11-06T09:25:29.692Z,6.70
2022-11-06T09:27:59.451Z,6.80
2022-11-06T09:30:29.191Z,6.80
2022-11-06T09:33:01.981Z,6.90
2022-11-06T09:35:30.997Z,7.00
2022-11-06T09:38:11.234Z,7.10
2022-11-06T09:41:16.734Z,7.10
2022-11-06T09:44:11.060Z,7.20
2022-11-06T09:46:42.575Z,7.30
2022-11-06T09:49:44.229Z,8.50
2022-11-06T09:52:22.712Z,7.50
2022-11-06T09:54:57.146Z,7.60
2022-11-06T09:57:33.962Z,7.70
2022-11-06T10:00:03.234Z,7.80
2022-11-06T10:02:47.219Z,7.90
2022-11-06T10:05:23.972Z,7.90
2022-11-06T10:07:53.801Z,8.00
2022-11-06T10:10:30.297Z,8.80
2022-11-06T10:13:51.974Z,8.20
2022-11-06T10:16:49.295Z,8.30
2022-11-06T10:19:37.104Z,8.40
2022-11-06T10:22:17.193Z,8.40
2022-11-06T10:24:49.926Z,8.50
2022-11-06T10:27:19.022Z,8.50
2022-11-06T10:30:15.039Z,8.60
2022-11-06T10:32:57.101Z,8.70
2022-11-06T10:35:38.516Z,9.90
2022-11-06T10:38:24.891Z,8.80
2022-11-06T10:40:54.027Z,8.90
2022-11-06T10:43:26.864Z,10.20
2022-11-06T10:46:20.930Z,9.00
2022-11-06T10:48:52.942Z,9.10
2022-11-06T10:59:23.292Z,9.30
2022-11-06T11:35:51.416Z,9.70
2022-11-06T11:38:19.130Z,9.60
2022-11-06T11:40:46.096Z,10.30
2022-11-06T11:43:32.951Z,10.90
2022-11-06T11:46:13.204Z,9.90
2022-11-06T11:48:50.177Z,9.90
2022-11-06T11:51:23.415Z,10.00
2022-11-06T11:53:51.658Z,9.90
2022-11-06T11:56:42.500Z,9.90
2022-11-06T11:59:38.602Z,10.00
2022-11-06T12:02:27.224Z,10.00
2022-11-06T12:05:06.138Z,10.00
2022-11-06T12:07:38.847Z,10.10
2022-11-06T12:10:36.441Z,10.10
2022-11-06T12:13:16.684Z,10.10
2022-11-06T12:15:53.310Z,10.20
2022-11-06T12:18:24.921Z,10.20
2022-11-06T12:21:08.553Z,11.20
2022-11-06T12:23:41.282Z,10.20
2022-11-06T12:26:35.871Z,10.20
2022-11-06T12:29:25.359Z,10.20
2022-11-06T12:32:03.842Z,10.20
2022-11-06T12:34:45.261Z,10.20
2022-11-06T12:37:21.093Z,10.20
2022-11-06T12:39:56.631Z,10.20
2022-11-06T12:42:28.324Z,10.20
2022-11-06T12:44:55.004Z,10.30
2022-11-06T12:47:41.101Z,10.30
2022-11-06T12:50:46.781Z,10.30
2022-11-06T12:53:26.412Z,10.30
2022-11-06T12:56:12.859Z,10.30
2022-11-06T12:58:58.259Z,10.30
2022-11-06T13:01:53.458Z,10.30
2022-11-06T13:04:44.981Z,10.30
2022-11-06T13:07:39.535Z,10.30
2022-11-06T14:08:42.089Z,10.10
2022-11-06T14:11:20.302Z,10.10
2022-11-06T14:14:02.367Z,10.00
2022-11-06T14:16:35.128Z,10.00
2022-11-06T14:19:11.504Z,10.00
2022-11-06T14:21:51.623Z,10.00
2022-11-06T14:24:30.550Z,9.90
2022-11-06T14:26:58.286Z,9.90
2022-11-06T14:29:28.185Z,9.90
2022-11-06T14:32:23.823Z,9.80
2022-11-06T14:34:51.283Z,9.80
2022-11-06T14:37:19.522Z,9.80
2022-11-06T14:39:55.683Z,9.70
2022-11-06T14:42:43.121Z,9.70
2022-11-06T14:45:15.854Z,9.70
2022-11-06T14:47:56.871Z,10.20
2022-11-06T14:50:25.801Z,9.60
2022-11-06T14:53:06.273Z,9.60
2022-11-06T14:55:37.268Z,9.80
2022-11-06T14:58:28.959Z,9.50
2022-11-06T15:01:11.200Z,9.40
2022-11-06T15:03:52.596Z,9.40
2022-11-06T15:06:19.906Z,9.30
2022-11-06T15:08:46.895Z,9.20
2022-11-06T15:11:47.715Z,9.20
2022-11-06T15:14:14.828Z,9.10
2022-11-06T15:16:55.499Z,9.10
2022-11-06T15:19:23.775Z,9.00
2022-11-06T15:22:16.293Z,9.00
2022-11-06T15:24:49.537Z,8.90
2022-11-06T15:27:21.440Z,10.30
2022-11-06T15:29:53.149Z,8.80
2022-11-06T15:32:24.684Z,8.70
2022-11-06T15:35:06.295Z,9.20
2022-11-06T15:37:40.439Z,8.70
2022-11-06T15:40:22.099Z,8.70
2022-11-06T15:42:49.958Z,8.60
2022-11-06T15:45:17.738Z,8.50
2022-11-06T15:47:59.444Z,8.50
2022-11-06T15:50:32.468Z,8.50
2022-11-06T15:53:15.377Z,8.40
2022-11-06T15:55:50.254Z,8.40
2022-11-06T15:58:23.120Z,8.30
2022-11-06T16:00:52.683Z,8.30
2022-11-06T16:03:22.549Z,8.20
2022-11-06T16:05:50.415Z,8.20
2022-11-06T16:08:19.457Z,8.20
2022-11-06T16:10:50.622Z,8.10
2022-11-06T16:13:20.765Z,8.10
2022-11-06T16:16:01.921Z,8.00
2022-11-06T16:18:42.416Z,8.00
2022-11-06T16:21:12.465Z,8.00
2022-11-06T16:23:45.860Z,7.90
2022-11-06T16:26:27.305Z,7.90
2022-11-06T16:28:56.453Z,7.80
2022-11-06T16:31:27.348Z,7.80
2022-11-06T16:33:59.470Z,7.80
2022-11-06T16:36:28.199Z,7.70
2022-11-06T16:39:15.482Z,7.70
2022-11-06T16:42:03.631Z,7.60
2022-11-06T16:44:37.330Z,7.60
2022-11-06T16:47:13.537Z,7.60
2022-11-06T16:50:27.023Z,7.60
2022-11-06T16:52:54.578Z,7.50
2022-11-06T16:55:25.877Z,7.50
2022-11-06T16:57:56.683Z,7.40
2022-11-06T17:00:31.088Z,7.40
2022-11-06T17:02:58.411Z,7.40
2022-11-06T17:05:32.277Z,7.40
2022-11-06T17:08:20.546Z,7.30
2022-11-06T17:10:48.935Z,7.30
2022-11-06T17:13:31.347Z,7.30
2022-11-06T17:16:01.183Z,7.30
2022-11-06T17:18:41.772Z,7.20
2022-11-06T17:21:13.184Z,7.10
2022-11-06T17:23:40.206Z,8.60
2022-11-06T17:26:14.425Z,7.10
2022-11-06T17:28:41.260Z,7.70
2022-11-06T17:31:13.004Z,7.00
2022-11-06T17:33:40.976Z,7.00
2022-11-06T17:36:14.985Z,6.90
2022-11-06T17:38:41.685Z,6.90
2022-11-06T17:41:08.447Z,7.50
2022-11-06T17:43:35.287Z,6.80
2022-11-06T17:46:02.557Z,6.80
2022-11-06T17:48:29.352Z,6.80
2022-11-06T17:51:15.140Z,6.80
2022-11-06T17:53:44.851Z,7.10
2022-11-06T17:56:11.621Z,6.70
2022-11-06T17:58:38.479Z,6.60
2022-11-06T18:01:10.810Z,6.60
2022-11-06T18:03:44.369Z,6.60
2022-11-06T18:06:12.949Z,6.60
2022-11-06T18:08:39.782Z,6.50
2022-11-06T18:11:08.099Z,6.50
2022-11-06T18:13:35.807Z,6.50
2022-11-06T18:16:03.050Z,6.50
2022-11-06T18:18:30.054Z,6.40
2022-11-06T18:20:56.919Z,6.40
2022-11-06T18:23:23.776Z,6.40
2022-11-06T18:25:57.755Z,6.40
2022-11-06T18:28:25.436Z,6.30
2022-11-06T18:30:52.829Z,6.30
2022-11-06T18:33:20.506Z,6.30
2022-11-06T18:35:47.621Z,6.30
2022-11-06T18:38:15.467Z,6.30
2022-11-06T18:40:47.450Z,6.30
2022-11-06T18:43:18.897Z,7.30
2022-11-06T18:45:45.619Z,6.30
2022-11-06T18:48:15.792Z,6.30
2022-11-06T18:50:45.646Z,9.30
2022-11-06T18:53:15.278Z,6.30
2022-11-06T18:55:46.091Z,6.30
2022-11-06T18:58:13.530Z,6.30
2022-11-06T19:00:40.497Z,6.30
2022-11-06T19:03:07.226Z,6.30
2022-11-06T19:05:34.403Z,6.20
2022-11-06T19:08:02.667Z,6.20
2022-11-06T19:10:31.268Z,7.50
2022-11-06T19:12:59.550Z,6.50
2022-11-06T19:15:26.786Z,7.40
2022-11-06T19:17:54.793Z,6.20
2022-11-06T19:20:22.815Z,6.20
2022-11-06T19:22:51.376Z,6.10
2022-11-06T19:25:18.761Z,6.20
2022-11-06T19:27:45.861Z,6.20
2022-11-06T19:30:13.346Z,6.20
2022-11-06T19:32:40.179Z,6.90
2022-11-06T19:35:07.753Z,6.10
2022-11-06T19:37:36.119Z,6.10
2022-11-06T19:40:06.160Z,6.10
2022-11-06T19:42:34.104Z,6.10
2022-11-06T19:45:01.516Z,6.10
2022-11-06T19:47:28.356Z,6.10
2022-11-06T19:49:55.106Z,6.10
2022-11-06T19:52:42.505Z,7.60
2022-11-06T19:55:25.906Z,7.30
2022-11-06T19:57:57.080Z,6.00
2022-11-06T20:00:23.834Z,6.00
2022-11-06T20:02:50.989Z,6.00
2022-11-06T20:05:18.282Z,6.00
2022-11-06T20:07:45.006Z,6.00
2022-11-06T20:10:11.760Z,6.10
2022-11-06T20:12:38.488Z,6.00
2022-11-06T20:15:05.669Z,6.00
2022-11-06T20:17:32.401Z,6.00
2022-11-06T20:19:59.221Z,6.00
2022-11-06T20:22:25.922Z,6.00
2022-11-06T20:24:52.794Z,5.90
2022-11-06T20:27:19.544Z,5.90
2022-11-06T20:29:46.230Z,5.80
2022-11-06T20:32:18.585Z,5.80
2022-11-06T20:34:46.146Z,5.80
2022-11-06T20:37:13.107Z,5.70
2022-11-06T20:39:41.737Z,5.70
2022-11-06T20:42:08.702Z,5.60
2022-11-06T20:44:35.503Z,7.30
2022-11-06T20:47:02.254Z,7.10
2022-11-06T20:49:29.230Z,6.20
2022-11-06T20:52:13.332Z,5.40
2022-11-06T20:54:46.326Z,5.40
2022-11-06T20:57:15.596Z,5.30
2022-11-06T20:59:42.626Z,5.30
2022-11-06T21:02:11.370Z,5.20
2022-11-06T21:04:38.322Z,5.20
2022-11-06T21:07:05.476Z,5.10
2022-11-06T21:09:32.438Z,5.10
2022-11-06T21:11:59.132Z,5.00
2022-11-06T21:14:25.935Z,6.20
2022-11-06T21:16:54.143Z,4.90
2022-11-06T21:19:20.957Z,4.80
2022-11-06T21:21:47.710Z,4.90
2022-11-06T21:24:14.520Z,4.80
2022-11-06T21:26:41.335Z,4.80
2022-11-06T21:29:10.789Z,4.80
2022-11-06T21:31:43.999Z,4.80
2022-11-06T21:34:15.310Z,4.80
2022-11-06T21:36:45.813Z,4.70
2022-11-06T21:39:17.512Z,5.80
2022-11-06T21:41:44.874Z,4.70
2022-11-06T21:44:17.180Z,4.70
2022-11-06T21:46:45.697Z,4.70
2022-11-06T21:49:13.653Z,4.70
2022-11-06T21:51:40.628Z,4.70
2022-11-06T21:54:25.971Z,4.60
2022-11-06T21:56:53.514Z,4.60
2022-11-06T21:59:25.703Z,4.60
2022-11-06T22:01:52.926Z,4.60
2022-11-06T22:04:20.487Z,4.60
2022-11-06T22:06:47.264Z,4.70
2022-11-06T22:09:14.738Z,5.30
2022-11-06T22:11:44.755Z,4.70
2022-11-06T22:14:14.103Z,4.70
2022-11-06T22:16:43.136Z,4.60
2022-11-06T22:19:11.144Z,4.60
2022-11-06T22:21:42.639Z,4.60
2022-11-06T22:24:12.060Z,4.60
2022-11-06T22:26:39.709Z,4.60
2022-11-06T22:29:09.257Z,4.60
2022-11-06T22:31:36.339Z,4.60
2022-11-06T22:34:03.115Z,4.70
2022-11-06T22:36:30.004Z,4.70
2022-11-06T22:38:58.964Z,4.20
2022-11-06T22:41:26.110Z,4.60
2022-11-06T22:43:57.358Z,4.70
2022-11-06T22:46:24.225Z,4.70
2022-11-06T22:48:52.337Z,4.70
2022-11-06T22:51:22.943Z,4.70
2022-11-06T22:53:50.509Z,3.90
2022-11-06T22:56:18.815Z,4.70
2022-11-06T22:58:46.089Z,4.70
2022-11-06T23:01:13.457Z,4.70
2022-11-06T23:03:40.869Z,4.70
2022-11-06T23:06:09.686Z,4.60
2022-11-06T23:08:44.161Z,4.70
2022-11-06T23:11:15.886Z,4.60
2022-11-06T23:13:43.895Z,5.30
2022-11-06T23:16:17.844Z,4.70
2022-11-06T23:18:45.084Z,4.70
2022-11-06T23:21:18.941Z,4.70
2022-11-06T23:23:46.110Z,4.70
2022-11-06T23:26:16.457Z,4.70
2022-11-06T23:28:44.279Z,4.70
2022-11-06T23:31:13.592Z,4.70
2022-11-06T23:33:40.870Z,4.70
2022-11-06T23:36:09.148Z,4.70
2022-11-06T23:38:35.993Z,4.70
2022-11-06T23:41:29.495Z,4.70
2022-11-06T23:43:57.669Z,5.30
2022-11-06T23:46:27.596Z,4.70
2022-11-06T23:48:54.433Z,4.70
2022-11-06T23:51:22.258Z,4.70
2022-11-06T23:53:49.176Z,4.70
2022-11-06T23:56:16.704Z,4.70
2022-11-06T23:58:43.638Z,4.70
